Crown Point, IN (46307)

12:47 PM CST on March 06, 2015 (GMT -0600)
Stillwater | Change Station
CLOSE
Current Station
Personal Weather Station
Location: Crown Point, IN
Elevation: 781 ft
Nearby Weather Stations

Elev 781 ft 41.39 °N, 87.34 °W | Updated 1 second ago

Clear
Clear
20.5 °F
Feels Like 10 °F
N
9.0
Wind Variable Wind from South
Gusts 17.0 mph

Today
High -- | Low -- °F
--% Chance of Precip.
Yesterday
High -- | Low -- °F
Precip. -- in
6:16 AM 5:45 PM
Full, 99% visible
Pressure 30.33 in
Visibility 10.0 miles
Clouds Scattered Clouds 12000 ft
Windchill 10 °F
Dew Point 11 °F
Humidity 66%
Rainfall in
Snow Depth Not available.
UV 5 out of 12
Pollen .20 out of 12
Air Quality Not available.
Flu Activity Not available.
METAR KIGQ 061835Z AUTO 19017KT 10SM SCT120 M07/M13 A3033 RMK AO2 T10661126

More Conditions Fewer Conditions

Pressure 30.33 in
Visibility 10.0 miles
Clouds Scattered Clouds 12000 ft
Windchill 10 °F
Dew Point 11 °F
Humidity 66%
Rainfall in
Snow Depth Not available.
UV 5 out of 12
Pollen .20 out of 12
Air Quality Not available.
Flu Activity Not available.
METAR KIGQ 061835Z AUTO 19017KT 10SM SCT120 M07/M13 A3033 RMK AO2 T10661126

More Conditions Fewer Conditions

10-Day Weather Forecast

Almanac

Astronomy

Mar. 06, 2015 Rise Set
Actual Time
Civil Twilight
Nautical Twilight
Astronomical Twilight
Moon
Length of Visible Light
Length of Day
Tomorrow will be .
, % of the Moon is Illuminated

Today's Extremes

State Highs State Lows

Community

WunderPhotos

Upload Photos

1,803,367 photos uploaded!

WunderBlogs® & News

Nearby

Air Quality

  Air Quality AQ Index Pollutant
Not available.

Snow Depth

Station Depth Elevation

Earthquake Activity

City Distance Mag. Time & Date
Minimum magnitude displayed is 2.5.

Coastal Water Temperatures

Place Temperature

Nearby Weather Stations